Time;durP1;ratioP1;P1;durP2;ratioP2;P2;SDS_P1;SDS_P2;PMS_P1;PMS_P2;Temp;Humidity;BMP_temperature;BMP_pressure;BME280_temperature;BME280_humidity;BME280_pressure;Samples;Min_cycle;Max_cycle;Signal;HPM_P1;HPM_P2
2022/03/31 00:02:44;;;;;;;12.73;6.77;;;;;;;2.90;100.00;99529.25;10258052;28;20236;-72
2022/03/31 00:07:49;;;;;;;11.77;6.50;;;;;;;2.88;100.00;99528.38;10257919;29;20227;-71
2022/03/31 00:13:31;;;;;;;11.50;6.53;;;;;;;2.98;100.00;99537.00;10259406;28;20215;-71
2022/03/31 00:18:37;;;;;;;10.70;5.50;;;;;;;2.99;100.00;99531.03;10257362;28;20235;-71
2022/03/31 00:23:40;;;;;;;11.43;6.53;;;;;;;2.95;100.00;99525.00;10257085;29;20527;-71
2022/03/31 00:28:44;;;;;;;13.17;6.50;;;;;;;2.95;100.00;99521.63;10259020;28;20238;-71
2022/03/31 00:33:49;;;;;;;13.77;6.53;;;;;;;2.92;100.00;99519.88;10259741;28;20228;-71
2022/03/31 00:44:10;;;;;;;10.00;5.73;;;;;;;2.82;100.00;99514.69;10248748;28;20290;-75
2022/03/31 00:49:14;;;;;;;12.13;5.50;;;;;;;2.76;100.00;99517.22;10258167;28;20228;-73
2022/03/31 00:54:20;;;;;;;10.33;4.83;;;;;;;2.62;100.00;99509.44;10257884;28;20553;-72
2022/03/31 00:59:23;;;;;;;8.37;4.53;;;;;;;2.69;100.00;99507.78;10256340;29;20238;-70
2022/03/31 01:04:28;;;;;;;7.73;3.93;;;;;;;2.73;100.00;99506.91;10261142;28;20570;-70
2022/03/31 01:09:32;;;;;;;7.53;4.27;;;;;;;2.57;100.00;99489.75;10265870;29;20224;-67
2022/03/31 01:14:36;;;;;;;10.07;4.23;;;;;;;2.64;100.00;99499.19;10263615;29;20224;-71
2022/03/31 01:19:40;;;;;;;8.53;3.90;;;;;;;2.70;100.00;99492.41;10263479;29;20230;-69
2022/03/31 01:24:45;;;;;;;7.70;3.53;;;;;;;2.58;100.00;99494.00;10263422;29;20226;-69
2022/03/31 01:29:48;;;;;;;7.60;3.93;;;;;;;2.58;100.00;99494.00;10263148;28;20238;-70
2022/03/31 01:34:51;;;;;;;9.00;3.67;;;;;;;2.60;100.00;99487.19;10267113;28;20232;-70
2022/03/31 01:39:56;;;;;;;6.03;3.20;;;;;;;2.43;100.00;99488.78;10265419;29;20621;-72
2022/03/31 01:44:59;;;;;;;8.57;3.17;;;;;;;2.52;100.00;99487.13;10262590;28;20227;-69
2022/03/31 01:50:03;;;;;;;7.30;3.37;;;;;;;2.51;100.00;99482.00;10262292;29;20551;-72
2022/03/31 01:55:09;;;;;;;9.53;3.50;;;;;;;2.38;100.00;99489.59;10262549;29;20223;-68
2022/03/31 02:00:13;;;;;;;9.90;4.40;;;;;;;2.42;99.80;99489.63;10262241;29;20249;-70
2022/03/31 02:05:16;;;;;;;7.60;4.00;;;;;;;2.29;100.00;99488.66;10263972;28;20240;-66
2022/03/31 02:10:21;;;;;;;7.03;4.03;;;;;;;2.46;100.00;99488.78;10262529;29;20247;-70
2022/03/31 02:15:25;;;;;;;8.70;4.13;;;;;;;2.38;100.00;99495.56;10260935;28;20220;-73
2022/03/31 02:20:28;;;;;;;7.93;3.73;;;;;;;2.35;99.70;99489.56;10261103;28;20303;-71
2022/03/31 02:25:34;;;;;;;8.83;3.47;;;;;;;2.31;100.00;99490.38;10260885;28;20320;-72
2022/03/31 02:30:38;;;;;;;7.70;3.10;;;;;;;2.40;100.00;99491.31;10261175;28;20557;-71
2022/03/31 02:35:42;;;;;;;11.87;4.10;;;;;;;2.48;100.00;99479.44;10261271;28;20246;-74
2022/03/31 02:40:46;;;;;;;8.10;2.93;;;;;;;2.36;99.33;99485.31;10260669;28;20234;-70
2022/03/31 02:45:50;;;;;;;13.73;3.47;;;;;;;2.33;100.00;99485.25;10260322;28;20255;-68
2022/03/31 02:50:53;;;;;;;9.77;3.13;;;;;;;2.35;100.00;99489.56;10260267;28;20219;-72
2022/03/31 02:55:58;;;;;;;7.60;3.10;;;;;;;2.32;100.00;99481.88;10260248;29;20231;-70
2022/03/31 03:01:02;;;;;;;7.77;3.10;;;;;;;2.29;100.00;99491.22;10261869;28;20550;-73
2022/03/31 03:06:06;;;;;;;7.17;3.40;;;;;;;2.36;100.00;99498.94;10259766;29;20294;-71
2022/03/31 03:11:10;;;;;;;6.90;3.07;;;;;;;2.33;99.89;99490.38;10259356;28;20235;-70
2022/03/31 03:16:14;;;;;;;6.93;3.40;;;;;;;2.30;99.68;99482.69;10259361;28;20200;-69
2022/03/31 03:21:18;;;;;;;7.57;3.67;;;;;;;2.25;100.00;99489.47;10259101;28;20192;-70
2022/03/31 03:26:23;;;;;;;19.40;4.57;;;;;;;2.27;99.57;99478.41;10258723;28;20553;-72
2022/03/31 03:31:26;;;;;;;6.50;3.50;;;;;;;2.32;99.81;99486.13;10264503;28;20193;-68
2022/03/31 03:36:29;;;;;;;7.33;3.60;;;;;;;2.21;97.85;99486.03;10258248;29;20207;-70
2022/03/31 03:41:34;;;;;;;8.50;3.97;;;;;;;2.19;98.70;99480.03;10258343;29;20196;-73
2022/03/31 03:46:37;;;;;;;8.23;3.57;;;;;;;2.14;97.41;99474.03;10258040;29;20231;-72
2022/03/31 03:51:40;;;;;;;6.20;3.23;;;;;;;2.15;97.83;99483.44;10257861;29;20636;-72
2022/03/31 03:56:45;;;;;;;9.27;4.43;;;;;;;2.09;98.04;99487.59;10259869;29;20203;-70
2022/03/31 04:01:48;;;;;;;9.73;4.60;;;;;;;2.14;98.10;99488.53;10257642;29;20196;-70
2022/03/31 04:06:52;;;;;;;10.63;5.40;;;;;;;2.03;97.13;99493.56;10256489;29;20231;-70
2022/03/31 04:11:56;;;;;;;7.80;4.37;;;;;;;2.09;97.72;99496.16;10257252;29;20211;-71
2022/03/31 04:17:00;;;;;;;9.60;4.30;;;;;;;2.09;96.80;99503.84;10257434;29;20597;-73
2022/03/31 04:22:04;;;;;;;9.87;4.70;;;;;;;2.07;96.44;99502.94;10256852;28;20670;-71
2022/03/31 04:27:09;;;;;;;9.80;5.27;;;;;;;2.01;96.66;99497.78;10259921;29;20224;-71
2022/03/31 04:32:13;;;;;;;8.77;4.50;;;;;;;2.09;96.32;99508.09;10256884;28;20200;-71
2022/03/31 04:37:16;;;;;;;11.30;4.27;;;;;;;2.11;95.10;99519.19;10256833;28;20238;-70
2022/03/31 04:42:21;;;;;;;8.67;4.50;;;;;;;2.11;96.00;99522.63;10255953;29;21441;-70
2022/03/31 04:47:24;;;;;;;11.60;5.17;;;;;;;2.22;96.15;99517.59;10253655;29;20673;-69
2022/03/31 04:52:27;;;;;;;10.40;4.67;;;;;;;2.28;94.06;99522.75;10259582;29;20559;-69
2022/03/31 04:57:32;;;;;;;12.63;5.00;;;;;;;2.20;92.85;99516.72;10255254;28;20196;-71
2022/03/31 05:02:35;;;;;;;10.27;4.40;;;;;;;2.22;93.72;99509.94;10254818;29;20238;-71
2022/03/31 05:07:40;;;;;;;13.40;4.27;;;;;;;2.24;92.71;99524.44;9911478;28;10000014;-71
2022/03/31 05:12:45;;;;;;;10.20;4.77;;;;;;;2.24;91.46;99529.56;10252096;29;20278;-72
2022/03/31 05:17:48;;;;;;;9.87;4.50;;;;;;;2.22;91.40;99536.41;10251009;28;20306;-73
2022/03/31 05:22:51;;;;;;;8.50;4.97;;;;;;;2.42;92.33;99536.56;10254439;29;20876;-70
2022/03/31 05:27:58;;;;;;;17.03;5.30;;;;;;;2.53;90.53;99534.09;10251777;28;20238;-71
2022/03/31 05:33:02;;;;;;;8.73;4.43;;;;;;;2.54;88.58;99540.94;10251631;28;20307;-70
2022/03/31 05:38:06;;;;;;;10.03;4.50;;;;;;;2.55;87.99;99545.22;10251110;29;20224;-70
2022/03/31 05:43:12;;;;;;;9.40;4.87;;;;;;;2.58;87.89;99542.66;10251004;28;20216;-72
2022/03/31 05:48:17;;;;;;;14.13;5.30;;;;;;;2.67;88.84;99551.31;10255133;28;20220;-70
2022/03/31 05:53:20;;;;;;;13.70;4.87;;;;;;;2.77;87.76;99552.22;10258377;29;20628;-71
2022/03/31 05:58:25;;;;;;;12.03;4.30;;;;;;;2.75;87.25;99556.47;10258741;28;20234;-70
2022/03/31 06:03:29;;;;;;;10.03;4.90;;;;;;;2.83;88.43;99557.41;10258709;28;20236;-66
2022/03/31 06:08:32;;;;;;;9.47;3.73;;;;;;;2.76;87.49;99568.44;10255363;28;20239;-67
2022/03/31 06:13:37;;;;;;;13.73;5.13;;;;;;;3.00;86.97;99572.03;10258301;29;20306;-70
2022/03/31 06:18:40;;;;;;;11.33;4.30;;;;;;;2.99;85.33;99569.47;10260508;28;20224;-70
2022/03/31 06:23:44;;;;;;;9.43;4.30;;;;;;;3.02;85.57;99572.06;10258381;28;20228;-70
2022/03/31 06:28:49;;;;;;;9.53;4.10;;;;;;;3.14;84.86;99584.97;10257449;29;20346;-71
2022/03/31 06:33:53;;;;;;;13.20;5.23;;;;;;;3.26;84.47;99590.19;10257712;29;20220;-69
2022/03/31 06:38:56;;;;;;;10.80;4.67;;;;;;;3.32;83.57;99592.78;10257198;28;20585;-70
2022/03/31 06:44:01;;;;;;;13.27;4.60;;;;;;;3.46;82.80;99588.59;10259092;29;20220;-69
2022/03/31 06:49:04;;;;;;;7.23;3.77;;;;;;;3.34;81.82;99588.50;10257579;28;20228;-71
2022/03/31 06:54:09;;;;;;;9.57;4.03;;;;;;;3.41;81.24;99585.13;10256537;28;20216;-65
2022/03/31 06:59:13;;;;;;;38.23;17.37;;;;;;;3.52;83.00;99584.34;10256415;28;20295;-68
2022/03/31 07:04:17;;;;;;;8.60;4.27;;;;;;;3.75;80.62;99594.72;10256267;29;20239;-69
2022/03/31 07:09:20;;;;;;;7.43;3.93;;;;;;;3.71;79.60;99589.56;10255623;28;20228;-71
2022/03/31 07:14:24;;;;;;;8.20;4.10;;;;;;;3.78;80.47;99599.84;10256605;29;20666;-70
2022/03/31 07:19:29;;;;;;;8.57;3.77;;;;;;;4.08;80.52;99594.00;10255330;29;20307;-68
2022/03/31 07:24:33;;;;;;;9.17;4.00;;;;;;;4.23;79.82;99594.91;10255463;29;20220;-69
2022/03/31 07:29:37;;;;;;;9.83;4.43;;;;;;;4.18;77.54;99591.47;10255303;28;20253;-69
2022/03/31 07:34:41;;;;;;;9.43;4.17;;;;;;;4.45;77.76;99585.56;10255312;28;20358;-70
2022/03/31 07:39:45;;;;;;;10.73;3.50;;;;;;;4.34;76.02;99595.81;10254832;28;20299;-68
2022/03/31 07:44:51;;;;;;;6.97;3.43;;;;;;;4.36;76.49;99594.09;10255258;28;20286;-70
2022/03/31 07:49:54;;;;;;;9.17;3.60;;;;;;;4.54;76.44;99585.53;10254154;29;20234;-68
2022/03/31 07:54:57;;;;;;;9.47;3.37;;;;;;;4.76;74.43;99589.88;10255092;29;20662;-69
2022/03/31 08:00:07;;;;;;;10.40;3.63;;;;;;;4.66;73.67;99588.13;10254071;29;20303;-71
2022/03/31 08:05:11;;;;;;;11.70;3.57;;;;;;;4.88;73.78;99587.31;10253892;29;20247;-67
2022/03/31 08:10:14;;;;;;;7.43;3.10;;;;;;;5.07;73.20;99591.59;10256495;28;20740;-71
2022/03/31 08:15:20;;;;;;;9.23;3.30;;;;;;;5.19;71.68;99596.72;10254315;29;20226;-73
2022/03/31 08:20:23;;;;;;;8.87;3.93;;;;;;;5.35;72.01;99602.69;10253422;29;20220;-70
2022/03/31 08:25:26;;;;;;;9.93;3.40;;;;;;;5.46;71.22;99608.66;10253470;29;20223;-69
2022/03/31 08:30:31;;;;;;;7.47;2.90;;;;;;;5.71;70.44;99597.47;10275587;28;20331;-68
2022/03/31 08:35:35;;;;;;;8.00;2.90;;;;;;;5.98;69.29;99599.09;10254317;29;20235;-72
2022/03/31 08:40:38;;;;;;;6.53;3.40;;;;;;;5.88;67.59;99617.16;10254903;28;20270;-69
2022/03/31 08:45:45;;;;;;;5.97;2.90;;;;;;;5.98;68.38;99617.13;10253114;29;20226;-72
2022/03/31 08:50:48;;;;;;;7.43;3.13;;;;;;;6.06;66.52;99582.75;10252901;29;20320;-70
2022/03/31 08:55:51;;;;;;;9.60;2.90;;;;;;;6.15;66.15;99592.16;10253617;29;20212;-71
2022/03/31 09:00:56;;;;;;;6.53;2.87;;;;;;;6.20;65.22;99596.44;10253584;29;20314;-70
2022/03/31 09:05:59;;;;;;;5.50;2.80;;;;;;;6.23;64.32;99606.72;10253035;29;20709;-69
2022/03/31 09:11:03;;;;;;;7.20;2.90;;;;;;;6.47;64.53;99588.53;10252973;29;20246;-69
2022/03/31 09:16:11;;;;;;;6.03;2.50;;;;;;;6.46;63.43;99581.69;10252769;28;20555;-73
2022/03/31 09:21:20;;;;;;;6.20;2.43;;;;;;;6.64;63.59;99580.72;10252260;29;20708;-71
2022/03/31 09:26:27;;;;;;;9.13;2.93;;;;;;;6.83;62.08;99585.72;10261984;28;20232;-69
2022/03/31 09:31:31;;;;;;;6.83;2.90;;;;;;;6.87;62.23;99597.72;10259928;29;20221;-71
2022/03/31 09:36:36;;;;;;;5.67;2.77;;;;;;;6.92;61.84;99593.38;10259839;28;20230;-71
2022/03/31 09:41:41;;;;;;;7.47;2.93;;;;;;;7.00;61.48;99585.59;10262048;28;20210;-72
2022/03/31 09:46:47;;;;;;;7.93;3.03;;;;;;;6.99;60.98;99589.03;10262750;28;20210;-72
2022/03/31 09:51:52;;;;;;;6.10;2.40;;;;;;;7.06;60.97;99593.25;10262133;29;20232;-72
2022/03/31 09:56:57;;;;;;;11.43;2.60;;;;;;;7.07;60.30;99588.97;10263809;29;20207;-72
2022/03/31 10:02:03;;;;;;;6.27;2.60;;;;;;;7.14;60.51;99595.78;10261528;28;20529;-70
2022/03/31 10:07:06;;;;;;;7.47;3.40;;;;;;;7.29;60.31;99596.50;10262253;28;20258;-69
2022/03/31 10:12:18;;;;;;;9.57;3.10;;;;;;;7.31;58.57;99591.34;10261250;29;20235;-74
2022/03/31 10:17:27;;;;;;;6.97;2.37;;;;;;;7.37;57.63;99583.53;10261871;29;20192;-72
2022/03/31 10:27:52;;;;;;;7.40;2.40;;;;;;;7.59;57.48;99585.03;10261293;29;20202;-70
2022/03/31 10:32:59;;;;;;;9.27;2.53;;;;;;;7.62;56.50;99588.44;10260513;29;20227;-71
2022/03/31 10:38:13;;;;;;;5.40;2.00;;;;;;;7.69;57.26;99582.34;10260562;29;20210;-70
2022/03/31 10:43:21;;;;;;;7.70;3.03;;;;;;;7.87;56.40;99574.34;9915192;28;9999810;-69
2022/03/31 10:48:29;;;;;;;6.53;2.30;;;;;;;8.02;55.68;99583.66;10258224;28;20510;-68
2022/03/31 10:53:35;;;;;;;5.73;2.37;;;;;;;7.99;55.74;99573.34;10259633;28;20525;-69
2022/03/31 10:58:39;;;;;;;9.33;2.77;;;;;;;8.02;55.51;99573.34;10256942;28;20230;-71
2022/03/31 11:03:46;;;;;;;8.57;2.50;;;;;;;7.99;55.05;99573.34;10256579;28;20228;-70
2022/03/31 11:08:50;;;;;;;6.57;2.67;;;;;;;8.31;54.90;99566.06;10256010;28;20219;-69
2022/03/31 11:13:55;;;;;;;11.77;3.23;;;;;;;8.43;55.00;99571.06;10256032;28;20210;-69
2022/03/31 11:19:04;;;;;;;6.50;2.40;;;;;;;8.67;54.58;99562.09;10259405;28;20206;-69
2022/03/31 11:24:08;;;;;;;9.87;3.00;;;;;;;8.76;53.64;99549.03;10255955;29;20199;-69
2022/03/31 11:29:13;;;;;;;7.93;2.63;;;;;;;9.17;51.68;99542.28;10256302;29;20747;-71
2022/03/31 11:34:21;;;;;;;6.77;2.23;;;;;;;9.38;51.29;99551.41;10255342;28;20198;-70
2022/03/31 11:39:28;;;;;;;6.10;2.63;;;;;;;9.53;51.25;99547.66;10255210;29;20197;-68
2022/03/31 11:44:41;;;;;;;5.53;2.57;;;;;;;9.65;49.26;99556.06;10254718;28;20215;-71
2022/03/31 11:49:58;;;;;;;7.20;2.83;;;;;;;9.45;50.53;99560.75;10285530;28;20306;-71
2022/03/31 11:55:03;;;;;;;6.23;2.57;;;;;;;9.43;48.11;99551.31;10271048;28;20660;-73
2022/03/31 12:00:12;;;;;;;8.60;2.57;;;;;;;9.52;48.15;99551.13;10253600;29;20196;-70
2022/03/31 12:05:16;;;;;;;8.80;2.50;;;;;;;9.58;47.84;99553.63;10252800;29;20236;-70
2022/03/31 12:10:20;;;;;;;6.80;2.53;;;;;;;9.58;47.35;99557.03;10253500;29;20223;-73
2022/03/31 12:15:26;;;;;;;5.80;2.10;;;;;;;9.66;47.12;99546.56;10253815;29;20184;-70
2022/03/31 12:20:31;;;;;;;5.57;2.03;;;;;;;10.08;46.37;99536.19;10253812;29;20188;-69
2022/03/31 12:25:36;;;;;;;4.70;1.93;;;;;;;10.55;46.03;99535.13;10252723;28;20267;-72
2022/03/31 12:30:44;;;;;;;9.30;2.50;;;;;;;10.68;45.63;99528.78;10252518;29;20306;-62
2022/03/31 12:36:03;;;;;;;6.83;3.80;;;;;;;10.91;45.32;99526.47;10251916;29;20214;-68
2022/03/31 12:41:16;;;;;;;5.63;2.30;;;;;;;11.39;44.08;99522.59;10251158;29;20212;-65
2022/03/31 12:46:22;;;;;;;6.90;3.00;;;;;;;11.13;43.12;99524.19;10252540;29;20196;-63
2022/03/31 12:51:27;;;;;;;5.63;2.23;;;;;;;11.41;42.42;99504.38;10252175;29;20231;-67
2022/03/31 12:56:30;;;;;;;6.67;2.27;;;;;;;12.03;40.47;99492.25;10252632;28;20537;-66
2022/03/31 13:01:33;;;;;;;5.97;2.40;;;;;;;12.23;40.08;99501.16;10263445;28;20204;-66
2022/03/31 13:06:40;;;;;;;5.20;2.40;;;;;;;12.33;39.99;99486.94;10263041;29;20538;-70
2022/03/31 13:11:44;;;;;;;6.90;2.83;;;;;;;12.36;40.85;99493.78;10260922;29;20224;-71
2022/03/31 13:16:48;;;;;;;8.30;2.20;;;;;;;12.10;41.10;99493.72;10263343;29;20222;-72
2022/03/31 13:21:53;;;;;;;8.17;2.60;;;;;;;11.48;40.92;99496.38;10262377;28;20239;-69
2022/03/31 13:26:57;;;;;;;5.87;1.90;;;;;;;11.51;42.06;99492.81;10262268;28;20208;-70
2022/03/31 13:32:00;;;;;;;9.93;3.17;;;;;;;11.32;41.23;99487.28;10262140;29;21559;-69
2022/03/31 13:37:07;;;;;;;5.00;2.13;;;;;;;11.27;41.08;99489.16;10260535;28;20244;-70
2022/03/31 13:42:11;;;;;;;7.53;2.17;;;;;;;11.25;41.14;99488.34;10260641;28;20236;-71
2022/03/31 13:47:15;;;;;;;10.33;2.23;;;;;;;10.73;40.91;99484.53;10258493;28;20294;-71
2022/03/31 13:52:19;;;;;;;5.77;2.40;;;;;;;10.55;41.47;99484.97;10258732;29;20709;-72
2022/03/31 14:02:46;;;;;;;4.70;2.07;;;;;;;10.30;41.59;99479.53;10255948;29;20593;-75
2022/03/31 14:07:50;;;;;;;7.83;2.20;;;;;;;10.18;41.45;99475.47;10258170;28;20212;-72
2022/03/31 14:12:53;;;;;;;6.23;1.93;;;;;;;9.99;41.12;99463.75;10259953;29;20702;-72
2022/03/31 14:18:00;;;;;;;6.37;2.30;;;;;;;9.93;41.17;99457.88;10260434;29;20220;-66
2022/03/31 14:23:09;;;;;;;53.77;27.07;;;;;;;9.83;42.12;99472.78;10258915;29;20680;-75
2022/03/31 14:28:12;;;;;;;6.17;2.00;;;;;;;9.74;41.59;99459.16;10260974;28;20670;-68
2022/03/31 14:33:16;;;;;;;7.37;2.10;;;;;;;9.71;40.78;99454.91;10257930;28;20235;-69
2022/03/31 14:38:25;;;;;;;7.07;1.70;;;;;;;9.62;40.58;99444.72;10258512;29;20226;-66
2022/03/31 14:43:28;;;;;;;4.57;2.23;;;;;;;9.67;41.30;99444.63;10256836;28;20231;-69
2022/03/31 14:48:32;;;;;;;12.47;2.80;;;;;;;9.66;40.21;99443.78;10254327;29;20232;-72
2022/03/31 14:53:38;;;;;;;8.30;2.17;;;;;;;9.62;40.36;99433.50;10256310;29;20294;-70
2022/03/31 14:58:44;;;;;;;12.67;2.27;;;;;;;9.68;40.21;99420.44;10255893;29;20220;-71
2022/03/31 15:03:48;;;;;;;7.97;3.43;;;;;;;9.70;40.24;99423.84;10253721;28;20584;-69
2022/03/31 15:08:52;;;;;;;10.13;3.17;;;;;;;9.49;39.79;99409.59;10256975;28;20287;-70
2022/03/31 15:19:26;;;;;;;5.17;2.10;;;;;;;9.22;39.25;99402.38;10252043;28;20297;-70
2022/03/31 15:24:31;;;;;;;4.57;1.87;;;;;;;9.05;39.60;99397.56;10253892;28;20247;-69
2022/03/31 15:29:35;;;;;;;11.07;1.70;;;;;;;8.96;39.47;99395.13;10255488;28;20368;-71
2022/03/31 15:34:44;;;;;;;5.53;1.80;;;;;;;8.82;39.98;99398.84;10257425;29;20251;-72
2022/03/31 15:39:49;;;;;;;11.17;5.50;;;;;;;8.93;39.73;99397.78;10255408;28;20230;-71
2022/03/31 15:44:53;;;;;;;5.27;1.80;;;;;;;8.86;39.62;99395.34;10254884;29;20271;-68
2022/03/31 15:49:56;;;;;;;8.23;1.90;;;;;;;8.87;39.60;99387.53;10254413;28;20228;-73
2022/03/31 15:55:01;;;;;;;4.70;1.70;;;;;;;8.56;39.70;99390.75;10255548;29;20339;-70
2022/03/31 16:00:06;;;;;;;9.07;2.67;;;;;;;8.60;39.88;99400.13;10253918;28;20292;-70
2022/03/31 16:05:12;;;;;;;8.87;2.23;;;;;;;8.54;39.64;99403.66;10250936;29;20351;-68
2022/03/31 16:10:18;;;;;;;5.53;1.70;;;;;;;8.34;39.92;99390.25;10253231;28;20682;-67
2022/03/31 16:15:24;;;;;;;7.30;2.00;;;;;;;8.31;41.27;99417.88;10270061;28;20238;-69
2022/03/31 16:20:28;;;;;;;5.67;1.87;;;;;;;8.21;40.37;99417.16;10283011;28;20224;-69
2022/03/31 16:25:32;;;;;;;4.67;2.10;;;;;;;8.09;40.70;99425.91;10256864;28;20239;-69
2022/03/31 16:30:36;;;;;;;7.37;2.00;;;;;;;7.96;40.10;99427.00;10256657;28;20227;-70
2022/03/31 16:35:40;;;;;;;4.97;1.90;;;;;;;7.89;40.62;99425.38;10255981;28;20248;-69
2022/03/31 16:40:44;;;;;;;7.13;1.90;;;;;;;7.82;40.61;99426.31;10256134;28;20247;-68
2022/03/31 16:45:48;;;;;;;20.50;5.13;;;;;;;7.74;40.51;99442.81;10256020;28;20246;-70
2022/03/31 16:50:52;;;;;;;6.27;2.33;;;;;;;7.62;41.02;99438.66;10255811;28;20307;-71
2022/03/31 16:55:57;;;;;;;7.80;1.90;;;;;;;7.60;40.75;99450.75;10255829;28;20252;-71
2022/03/31 17:01:00;;;;;;;11.63;5.00;;;;;;;7.48;41.27;99450.91;10256263;28;20223;-69
2022/03/31 17:06:04;;;;;;;8.30;2.70;;;;;;;7.50;41.11;99456.03;10255917;29;20236;-69
2022/03/31 17:11:09;;;;;;;6.90;2.70;;;;;;;7.44;41.16;99467.28;10255782;28;20382;-71
2022/03/31 17:16:13;;;;;;;13.73;4.63;;;;;;;7.38;41.13;99479.41;10255615;29;20314;-69
2022/03/31 17:21:17;;;;;;;7.70;2.80;;;;;;;7.24;41.26;99482.16;9911345;28;10000011;-69
2022/03/31 17:26:22;;;;;;;12.67;2.23;;;;;;;7.26;41.23;99492.47;10252294;28;20294;-70
2022/03/31 17:31:26;;;;;;;8.10;2.47;;;;;;;7.26;41.25;99495.03;10253573;28;20230;-69
2022/03/31 17:36:29;;;;;;;7.33;2.50;;;;;;;7.21;41.59;99502.84;10252849;28;20577;-68
2022/03/31 17:41:34;;;;;;;13.93;3.00;;;;;;;7.16;41.82;99496.00;10255042;28;20214;-68
2022/03/31 17:46:38;;;;;;;7.07;2.70;;;;;;;7.18;42.88;99497.69;10259845;28;20192;-70
2022/03/31 17:51:41;;;;;;;6.77;2.73;;;;;;;7.13;42.10;99503.78;10261681;29;20216;-68
2022/03/31 17:56:46;;;;;;;10.27;3.00;;;;;;;7.07;42.23;99509.00;10259960;29;20690;-69
2022/03/31 18:01:50;;;;;;;8.03;2.47;;;;;;;7.01;41.71;99505.59;10262841;28;20258;-68
2022/03/31 18:06:54;;;;;;;6.90;2.77;;;;;;;6.85;41.79;99501.44;10261254;28;20644;-68
2022/03/31 18:11:58;;;;;;;7.53;2.63;;;;;;;6.92;42.01;99504.81;10261538;29;20220;-69
2022/03/31 18:17:02;;;;;;;5.43;2.27;;;;;;;6.83;42.29;99504.94;10261106;29;20307;-70
2022/03/31 18:22:08;;;;;;;7.83;2.83;;;;;;;6.82;41.81;99508.34;10261026;28;20307;-68
2022/03/31 18:27:13;;;;;;;8.73;3.57;;;;;;;6.73;42.34;99504.13;10260826;29;20545;-68
2022/03/31 18:37:38;;;;;;;8.13;2.33;;;;;;;6.66;41.62;99505.06;10257434;28;20704;-69
2022/03/31 18:42:43;;;;;;;6.50;2.37;;;;;;;6.63;41.91;99507.66;10257729;28;20235;-68
2022/03/31 18:47:51;;;;;;;101.87;41.33;;;;;;;6.59;42.06;99511.13;10256006;28;20307;-69
2022/03/31 18:52:55;;;;;;;10.47;3.47;;;;;;;6.66;42.40;99505.06;10256637;28;20252;-70
2022/03/31 18:57:59;;;;;;;7.03;2.10;;;;;;;6.60;41.82;99507.69;10256955;28;20725;-69
2022/03/31 19:03:03;;;;;;;5.93;1.90;;;;;;;6.61;41.31;99500.84;10257829;29;20318;-69
2022/03/31 19:08:08;;;;;;;8.73;1.97;;;;;;;6.49;41.23;99503.50;10259462;28;20220;-68
2022/03/31 19:13:16;;;;;;;4.73;2.17;;;;;;;6.47;41.46;99503.50;10258689;29;20228;-70
2022/03/31 19:18:19;;;;;;;4.83;2.00;;;;;;;6.44;41.64;99506.09;10258264;28;20295;-69
2022/03/31 19:23:22;;;;;;;7.43;2.40;;;;;;;6.42;41.77;99507.81;10257501;29;20302;-69
2022/03/31 19:28:27;;;;;;;4.70;2.03;;;;;;;6.37;42.34;99507.00;10256334;28;20212;-69
2022/03/31 19:33:30;;;;;;;4.63;1.73;;;;;;;6.28;41.39;99504.47;10257882;29;20238;-73
2022/03/31 19:38:34;;;;;;;5.80;1.93;;;;;;;6.20;42.11;99501.13;10257110;28;20295;-72
2022/03/31 19:43:40;;;;;;;8.50;2.80;;;;;;;6.12;41.88;99502.91;10257599;28;20230;-71
2022/03/31 19:48:44;;;;;;;9.90;3.97;;;;;;;6.07;41.86;99502.06;10257205;28;20299;-69
2022/03/31 19:53:49;;;;;;;6.50;2.20;;;;;;;6.10;42.13;99504.63;10256777;28;20565;-70
2022/03/31 19:58:54;;;;;;;6.20;2.33;;;;;;;6.03;42.04;99502.06;10254224;29;20687;-72
2022/03/31 20:03:57;;;;;;;6.87;2.70;;;;;;;5.96;41.84;99495.25;10256589;28;20258;-71
2022/03/31 20:09:00;;;;;;;9.03;2.20;;;;;;;5.97;42.02;99491.81;10259144;28;20556;-71
2022/03/31 20:14:06;;;;;;;5.43;2.10;;;;;;;6.00;41.96;99487.50;10256321;28;20231;-71
2022/03/31 20:19:10;;;;;;;8.10;2.17;;;;;;;5.93;42.20;99490.13;10255525;29;20216;-69
2022/03/31 20:24:14;;;;;;;8.10;1.70;;;;;;;5.86;41.88;99489.31;10256133;29;20216;-69
2022/03/31 20:29:19;;;;;;;6.27;1.87;;;;;;;5.86;42.36;99489.31;10256635;28;20238;-69
2022/03/31 20:34:22;;;;;;;7.80;2.20;;;;;;;5.65;42.52;99484.22;9912507;28;10000151;-68
2022/03/31 20:39:25;;;;;;;5.77;2.00;;;;;;;5.66;42.66;99479.06;10253847;28;20220;-64
2022/03/31 20:44:30;;;;;;;8.83;2.20;;;;;;;5.64;42.36;99475.63;10253208;28;20236;-66
2022/03/31 20:49:34;;;;;;;4.13;1.70;;;;;;;5.64;42.25;99472.22;10253168;28;20220;-69
2022/03/31 20:54:38;;;;;;;5.47;2.00;;;;;;;5.59;41.75;99479.94;10253426;28;20232;-71
2022/03/31 20:59:42;;;;;;;5.17;2.07;;;;;;;5.57;41.85;99468.81;10254230;28;20216;-70
2022/03/31 21:04:47;;;;;;;8.23;2.63;;;;;;;5.65;42.02;99477.38;10253920;28;20248;-69
2022/03/31 21:09:50;;;;;;;10.37;3.50;;;;;;;5.71;41.09;99474.75;10254048;29;20310;-68
2022/03/31 21:14:55;;;;;;;6.77;1.90;;;;;;;5.60;41.87;99463.66;10252665;28;20311;-69
2022/03/31 21:19:58;;;;;;;5.53;2.07;;;;;;;5.56;40.88;99461.09;10257217;28;20220;-71
2022/03/31 21:25:03;;;;;;;6.30;1.93;;;;;;;5.53;41.13;99461.13;10260717;29;20298;-70
2022/03/31 21:30:10;;;;;;;5.20;1.70;;;;;;;5.54;41.25;99455.97;10260446;28;20212;-70
2022/03/31 21:35:13;;;;;;;8.97;2.17;;;;;;;5.42;41.31;99448.28;10251821;29;20230;-69
2022/03/31 21:40:18;;;;;;;9.70;3.60;;;;;;;5.46;40.63;99444.00;10260422;29;20223;-71
2022/03/31 21:45:22;;;;;;;5.77;2.13;;;;;;;5.44;40.59;99438.00;10259633;28;20227;-69
2022/03/31 21:50:26;;;;;;;6.70;2.13;;;;;;;5.36;41.35;99426.91;10259408;28;20228;-68
2022/03/31 21:55:29;;;;;;;6.57;1.83;;;;;;;5.37;41.15;99437.16;10259587;28;20565;-69
2022/03/31 22:01:05;;;;;;;3.67;1.30;;;;;;;5.32;40.93;99420.91;10258998;28;20782;-70
2022/03/31 22:06:08;;;;;;;4.80;1.50;;;;;;;5.22;40.96;99423.50;10237691;28;20248;-69
2022/03/31 22:16:35;;;;;;;4.47;1.73;;;;;;;5.19;40.88;99406.41;10258457;28;20223;-68
2022/03/31 22:21:40;;;;;;;4.17;1.73;;;;;;;5.26;41.31;99402.06;10259135;28;20673;-69
2022/03/31 22:26:44;;;;;;;4.27;1.40;;;;;;;5.15;41.36;99408.97;10258940;28;20239;-69
2022/03/31 22:31:49;;;;;;;3.50;1.47;;;;;;;5.08;41.14;99397.00;10257109;28;20212;-69
2022/03/31 22:36:54;;;;;;;5.13;1.40;;;;;;;5.13;41.29;99396.13;10260540;28;20926;-70
2022/03/31 22:41:59;;;;;;;6.03;1.60;;;;;;;5.09;41.69;99402.13;10257497;28;20220;-70
2022/03/31 22:47:05;;;;;;;3.67;1.03;;;;;;;5.05;41.73;99407.28;10257293;28;20542;-69
2022/03/31 22:52:12;;;;;;;4.20;1.40;;;;;;;5.05;41.94;99399.59;10257422;28;20323;-69
2022/03/31 22:57:15;;;;;;;3.60;1.47;;;;;;;5.07;41.88;99397.88;10256825;28;20224;-70
2022/03/31 23:02:22;;;;;;;5.27;1.40;;;;;;;5.04;41.48;99393.56;10256703;28;20674;-69
2022/03/31 23:07:26;;;;;;;4.97;1.47;;;;;;;5.01;42.28;99390.16;10259197;28;20216;-69
2022/03/31 23:12:29;;;;;;;4.90;1.43;;;;;;;4.96;41.83;99379.91;10256281;28;20303;-70
2022/03/31 23:17:34;;;;;;;6.17;1.40;;;;;;;4.92;42.70;99379.94;10256354;28;20619;-65
2022/03/31 23:22:37;;;;;;;5.40;1.40;;;;;;;4.77;42.84;99379.94;10255861;28;20231;-67
2022/03/31 23:27:41;;;;;;;4.60;1.30;;;;;;;4.78;43.67;99374.81;10257526;28;20252;-70
2022/03/31 23:32:45;;;;;;;3.40;1.30;;;;;;;4.87;43.60;99371.38;10258430;29;20236;-73
2022/03/31 23:37:49;;;;;;;4.73;1.57;;;;;;;4.88;43.54;99378.22;10259320;28;20227;-70
2022/03/31 23:42:52;;;;;;;5.07;1.70;;;;;;;4.89;44.01;99361.94;10254422;28;20223;-70
2022/03/31 23:47:57;;;;;;;4.83;1.30;;;;;;;4.91;44.12;99362.78;10257738;29;20287;-66
2022/03/31 23:53:01;;;;;;;6.57;1.47;;;;;;;4.83;44.11;99365.41;10258162;28;20232;-71
2022/03/31 23:58:05;;;;;;;4.33;1.47;;;;;;;4.73;44.10;99354.28;10257773;28;20266;-71
